Time;durP1;ratioP1;P1;durP2;ratioP2;P2;SDS_P1;SDS_P2;PMS_P1;PMS_P2;Temp;Humidity;BMP_temperature;BMP_pressure;BME280_temperature;BME280_humidity;BME280_pressure;Samples;Min_cycle;Max_cycle;Signal;HPM_P1;HPM_P2
2021/01/04 00:01:47;;;;;;;1.42;1.33;;;2.90;99.90;;;;;;5098694;28;20666;-74
2021/01/04 00:04:43;;;;;;;1.05;1.02;;;2.90;99.90;;;;;;5101096;28;20187;-74
2021/01/04 00:07:57;;;;;;;2.05;1.95;;;2.90;99.90;;;;;;5109889;28;20226;-74
2021/01/04 00:10:44;;;;;;;0.25;0.25;;;2.70;99.90;;;;;;5111666;28;20206;-74
2021/01/04 00:13:27;;;;;;;0.47;0.47;;;2.70;99.90;;;;;;5112144;28;20183;-74
2021/01/04 00:16:25;;;;;;;0.47;0.47;;;2.70;99.90;;;;;;5112029;28;20246;-74
2021/01/04 00:19:03;;;;;;;0.40;0.40;;;2.80;99.90;;;;;;5110762;28;20171;-74
2021/01/04 00:21:41;;;;;;;1.05;1.00;;;2.90;99.90;;;;;;5111942;28;20171;-74
2021/01/04 00:24:25;;;;;;;0.85;0.85;;;3.00;99.90;;;;;;5111867;28;20222;-74
2021/01/04 00:27:06;;;;;;;1.83;1.70;;;3.00;99.90;;;;;;5111820;28;20179;-74
2021/01/04 00:29:32;;;;;;;0.30;0.30;;;3.00;99.90;;;;;;5111814;28;20162;-74
2021/01/04 00:32:14;;;;;;;1.23;1.13;;;2.90;99.90;;;;;;5111525;28;20160;-74
2021/01/04 00:34:48;;;;;;;0.95;0.95;;;2.80;99.90;;;;;;5111723;28;20670;-74
2021/01/04 00:37:25;;;;;;;1.58;1.48;;;2.80;99.90;;;;;;5095355;28;20230;-74
2021/01/04 00:40:00;;;;;;;1.00;1.00;;;2.70;99.90;;;;;;5091301;28;20170;-74
2021/01/04 00:42:33;;;;;;;0.38;0.38;;;2.70;99.90;;;;;;5089679;28;20227;-74
2021/01/04 00:45:31;;;;;;;3.28;2.28;;;2.70;99.90;;;;;;5089564;28;20204;-74
2021/01/04 00:48:13;;;;;;;0.90;0.90;;;2.80;99.90;;;;;;5090948;28;20164;-74
2021/01/04 00:50:56;;;;;;;1.95;1.80;;;2.80;99.90;;;;;;5090912;28;21661;-74
2021/01/04 00:53:47;;;;;;;1.58;1.58;;;2.80;99.90;;;;;;5091077;28;20156;-74
2021/01/04 00:56:13;;;;;;;1.95;1.85;;;2.80;99.90;;;;;;5097562;28;20195;-74
2021/01/04 00:59:17;;;;;;;0.52;0.40;;;2.80;99.90;;;;;;5111258;28;20190;-74
2021/01/04 01:01:49;;;;;;;1.67;1.63;;;2.90;99.90;;;;;;5099405;28;20199;-74
2021/01/04 01:04:30;;;;;;;0.43;0.43;;;2.90;99.90;;;;;;5090800;28;20163;-74
2021/01/04 01:07:22;;;;;;;0.50;0.50;;;2.80;99.90;;;;;;5103126;28;20199;-74
2021/01/04 01:09:53;;;;;;;1.58;1.48;;;2.80;99.90;;;;;;5099698;28;20274;-74
2021/01/04 01:12:19;;;;;;;0.57;0.57;;;2.80;99.90;;;;;;5092947;28;20263;-74
2021/01/04 01:14:57;;;;;;;0.10;0.10;;;2.80;99.90;;;;;;5090693;28;20171;-74
2021/01/04 01:17:57;;;;;;;0.20;0.20;;;2.80;99.90;;;;;;5090549;28;20197;-74
2021/01/04 01:20:24;;;;;;;0.65;0.65;;;2.80;99.90;;;;;;5090428;28;20164;-74
2021/01/04 01:22:51;;;;;;;2.05;1.95;;;2.90;99.90;;;;;;5089270;28;20167;-74
2021/01/04 01:25:23;;;;;;;2.38;2.08;;;3.00;99.90;;;;;;5090360;28;20248;-74
2021/01/04 01:28:15;;;;;;;1.08;1.08;;;2.90;99.90;;;;;;5107248;28;20175;-74
2021/01/04 01:31:00;;;;;;;0.40;0.40;;;2.80;99.90;;;;;;5110653;28;20182;-74
2021/01/04 01:33:45;;;;;;;0.80;0.80;;;2.90;99.90;;;;;;5109345;28;20187;-74
2021/01/04 01:36:32;;;;;;;1.98;1.88;;;3.00;99.90;;;;;;5102180;28;20241;-74
2021/01/04 01:39:51;;;;;;;1.08;0.98;;;3.00;99.90;;;;;;5090135;28;20171;-74
2021/01/04 01:42:43;;;;;;;1.02;1.02;;;3.10;99.90;;;;;;5087770;28;20232;-74
2021/01/04 01:45:23;;;;;;;0.60;0.60;;;3.20;99.90;;;;;;5087811;28;20223;-74
2021/01/04 01:47:51;;;;;;;0.52;0.52;;;3.20;99.90;;;;;;5087861;28;20280;-74
2021/01/04 01:50:44;;;;;;;2.33;2.13;;;3.20;99.90;;;;;;5071003;28;20176;-74
2021/01/04 01:53:23;;;;;;;1.13;1.13;;;3.10;99.90;;;;;;5087778;28;20160;-74
2021/01/04 01:56:04;;;;;;;0.32;0.32;;;3.20;99.90;;;;;;5070730;28;20207;-74
2021/01/04 01:58:30;;;;;;;5.07;2.35;;;3.00;99.90;;;;;;5070160;28;20164;-74
2021/01/04 02:01:04;;;;;;;1.10;0.82;;;3.10;99.90;;;;;;5070992;28;20672;-75
2021/01/04 02:03:48;;;;;;;0.63;0.63;;;3.10;99.90;;;;;;5087535;28;20243;-74
2021/01/04 02:06:52;;;;;;;1.33;1.05;;;3.20;99.90;;;;;;5086389;28;20203;-74
2021/01/04 02:09:29;;;;;;;0.63;0.63;;;3.20;99.90;;;;;;5006303;28;20194;-75
2021/01/04 02:12:09;;;;;;;1.40;1.30;;;3.10;99.90;;;;;;5087509;28;20198;-74
2021/01/04 02:15:01;;;;;;;0.17;0.17;;;3.10;99.90;;;;;;5087458;28;20166;-74
2021/01/04 02:18:08;;;;;;;1.40;1.33;;;3.20;99.90;;;;;;5048285;28;20208;-74
2021/01/04 02:21:00;;;;;;;0.90;0.88;;;3.20;99.90;;;;;;5049430;28;20180;-74
2021/01/04 02:23:56;;;;;;;1.08;1.08;;;3.20;99.90;;;;;;5038936;28;20185;-74
2021/01/04 02:26:26;;;;;;;0.63;0.63;;;3.20;99.90;;;;;;5049145;28;20205;-74
2021/01/04 02:29:12;;;;;;;2.65;2.53;;;3.10;99.90;;;;;;5048044;28;20173;-74
2021/01/04 02:31:42;;;;;;;1.90;1.80;;;3.10;99.90;;;;;;5048083;28;20192;-74
2021/01/04 02:34:11;;;;;;;0.40;0.40;;;3.10;99.90;;;;;;5049198;28;20161;-74
2021/01/04 02:36:44;;;;;;;0.30;0.30;;;3.10;99.90;;;;;;5049245;28;20193;-74
2021/01/04 02:39:19;;;;;;;1.08;1.08;;;3.10;99.90;;;;;;5049261;28;20166;-74
2021/01/04 02:42:02;;;;;;;0.73;0.73;;;3.10;99.90;;;;;;5074787;28;20219;-74
2021/01/04 02:44:29;;;;;;;0.75;0.65;;;3.10;99.90;;;;;;5089122;28;20180;-74
2021/01/04 02:47:19;;;;;;;1.45;1.45;;;3.10;99.90;;;;;;5090308;28;20200;-74
2021/01/04 02:49:55;;;;;;;0.25;0.25;;;3.20;99.90;;;;;;5089237;28;20148;-74
2021/01/04 02:52:52;;;;;;;2.80;2.70;;;3.20;99.90;;;;;;5089156;28;20156;-74
2021/01/04 02:55:35;;;;;;;1.48;1.42;;;3.20;99.90;;;;;;5088195;28;20198;-74
2021/01/04 02:58:30;;;;;;;0.35;0.35;;;3.30;99.90;;;;;;5089045;28;20167;-73
2021/01/04 03:01:05;;;;;;;0.77;0.77;;;3.30;99.90;;;;;;5088837;28;20329;-74
2021/01/04 03:03:34;;;;;;;0.85;0.85;;;3.20;99.90;;;;;;5089010;28;20170;-74
2021/01/04 03:06:02;;;;;;;0.35;0.35;;;3.20;99.90;;;;;;5089023;28;20186;-74
2021/01/04 03:08:28;;;;;;;1.55;1.45;;;3.20;99.90;;;;;;5089898;28;20153;-74
2021/01/04 03:10:55;;;;;;;1.08;1.08;;;3.30;99.90;;;;;;5092914;28;20203;-74
2021/01/04 03:13:39;;;;;;;0.25;0.25;;;3.30;99.90;;;;;;5093057;28;20161;-74
2021/01/04 03:16:15;;;;;;;1.40;1.33;;;3.20;99.90;;;;;;5095441;28;20210;-74
2021/01/04 03:18:58;;;;;;;0.20;0.20;;;3.30;99.90;;;;;;5111934;28;20179;-74
2021/01/04 03:21:26;;;;;;;1.02;1.02;;;3.30;99.90;;;;;;5113185;28;20159;-74
2021/01/04 03:23:53;;;;;;;1.48;1.33;;;3.30;99.90;;;;;;5113125;28;20152;-74
2021/01/04 03:26:22;;;;;;;0.90;0.90;;;3.30;99.90;;;;;;5110847;28;20203;-74
2021/01/04 03:28:48;;;;;;;1.70;1.65;;;3.30;99.90;;;;;;5113071;28;20159;-74
2021/01/04 03:31:14;;;;;;;0.47;0.47;;;3.30;99.90;;;;;;5112908;28;20155;-74
2021/01/04 03:33:40;;;;;;;0.98;0.98;;;3.40;99.90;;;;;;5112348;28;20168;-74
2021/01/04 03:36:06;;;;;;;1.10;1.08;;;3.40;99.90;;;;;;5112720;28;20194;-74
2021/01/04 03:38:34;;;;;;;1.38;1.27;;;3.50;99.90;;;;;;5111509;28;20175;-74
2021/01/04 03:41:01;;;;;;;0.40;0.40;;;3.40;99.90;;;;;;5112406;28;20240;-74
2021/01/04 03:43:27;;;;;;;1.85;1.75;;;3.40;99.90;;;;;;5112457;28;20170;-74
2021/01/04 03:45:53;;;;;;;0.47;0.47;;;3.50;99.90;;;;;;5112459;28;20203;-74
2021/01/04 03:48:19;;;;;;;3.10;1.45;;;3.50;99.90;;;;;;5112503;28;20152;-74
2021/01/04 03:50:45;;;;;;;1.70;1.60;;;3.50;99.90;;;;;;5111026;28;20159;-74
2021/01/04 03:53:12;;;;;;;1.45;1.35;;;3.50;99.90;;;;;;5111249;28;20256;-74
2021/01/04 03:55:39;;;;;;;0.40;0.40;;;3.50;99.90;;;;;;5112040;28;20167;-74
2021/01/04 03:58:06;;;;;;;1.80;1.70;;;3.40;99.90;;;;;;5112349;28;20151;-73
2021/01/04 04:00:32;;;;;;;0.40;0.40;;;3.50;99.90;;;;;;5110958;28;20171;-74
2021/01/04 04:02:58;;;;;;;0.95;0.95;;;3.50;99.90;;;;;;5112217;28;20148;-74
2021/01/04 04:05:24;;;;;;;1.30;1.25;;;3.40;99.90;;;;;;5112149;28;20198;-74
2021/01/04 04:07:50;;;;;;;0.70;0.70;;;3.40;99.90;;;;;;5111830;28;20151;-74
2021/01/04 04:10:19;;;;;;;1.50;1.45;;;3.30;99.90;;;;;;5111913;28;20207;-74
2021/01/04 04:12:46;;;;;;;1.83;1.73;;;3.30;99.90;;;;;;5110996;28;20227;-74
2021/01/04 04:15:14;;;;;;;2.38;2.28;;;3.30;99.90;;;;;;5112005;28;20163;-74
2021/01/04 04:17:40;;;;;;;2.63;2.08;;;3.20;99.90;;;;;;5110442;28;20300;-74
2021/01/04 04:20:13;;;;;;;0.55;0.55;;;3.20;99.90;;;;;;5111193;28;20160;-74
2021/01/04 04:22:39;;;;;;;1.27;1.20;;;3.20;99.90;;;;;;5092812;28;20619;-74
2021/01/04 04:25:07;;;;;;;1.05;1.05;;;3.20;99.90;;;;;;5091585;28;20195;-74
2021/01/04 04:27:33;;;;;;;2.85;1.92;;;3.20;99.90;;;;;;5091353;28;20156;-74
2021/01/04 04:30:00;;;;;;;0.65;0.65;;;3.20;99.90;;;;;;5091528;28;20213;-74
2021/01/04 04:32:25;;;;;;;0.93;0.93;;;3.20;99.90;;;;;;5091509;28;20188;-74
2021/01/04 04:34:51;;;;;;;1.13;1.13;;;3.10;99.90;;;;;;5090005;28;20229;-74
2021/01/04 04:37:17;;;;;;;0.95;0.95;;;3.10;99.90;;;;;;5091451;28;20156;-74
2021/01/04 04:39:43;;;;;;;1.50;1.48;;;3.20;99.90;;;;;;5091198;28;20164;-74
2021/01/04 04:42:12;;;;;;;0.55;0.55;;;3.20;99.90;;;;;;5091146;28;20259;-74
2021/01/04 04:44:50;;;;;;;8.50;1.33;;;3.10;99.90;;;;;;5091220;28;20646;-74
2021/01/04 04:47:53;;;;;;;0.95;0.95;;;2.90;99.90;;;;;;5091122;28;20181;-74
2021/01/04 04:50:34;;;;;;;2.05;1.85;;;3.00;99.90;;;;;;5082184;28;20202;-74
2021/01/04 04:53:42;;;;;;;1.20;1.20;;;2.90;99.90;;;;;;5089628;28;20164;-73
2021/01/04 04:56:07;;;;;;;1.58;1.48;;;2.90;99.90;;;;;;5091218;28;20693;-73
2021/01/04 04:58:39;;;;;;;0.60;0.60;;;2.90;99.90;;;;;;5090754;28;20164;-74
2021/01/04 05:01:27;;;;;;;1.45;1.45;;;2.90;99.90;;;;;;5090823;28;20188;-74
2021/01/04 05:04:12;;;;;;;1.17;1.15;;;3.10;99.90;;;;;;5089223;28;20171;-74
2021/01/04 05:07:00;;;;;;;2.75;2.58;;;3.10;99.90;;;;;;5097733;28;20199;-73
2021/01/04 05:09:53;;;;;;;1.77;1.67;;;3.20;99.90;;;;;;5110483;28;20561;-73
2021/01/04 05:12:43;;;;;;;0.40;0.40;;;3.20;99.90;;;;;;5094610;28;20210;-73
2021/01/04 05:15:28;;;;;;;4.55;1.92;;;3.30;99.90;;;;;;5090485;28;20160;-75
2021/01/04 05:18:15;;;;;;;0.73;0.73;;;3.30;99.90;;;;;;5107396;28;20182;-75
2021/01/04 05:21:11;;;;;;;2.92;1.58;;;3.30;99.90;;;;;;5108332;28;20230;-75
2021/01/04 05:23:52;;;;;;;0.47;0.47;;;3.30;99.90;;;;;;5109485;28;20179;-75
2021/01/04 05:26:24;;;;;;;3.03;2.15;;;3.30;99.90;;;;;;5109238;28;20195;-75
2021/01/04 05:29:09;;;;;;;0.75;0.75;;;3.30;99.90;;;;;;5110542;28;20155;-74
2021/01/04 05:32:10;;;;;;;0.57;0.57;;;3.30;99.90;;;;;;5108669;28;20632;-74
2021/01/04 05:34:47;;;;;;;2.03;1.85;;;3.20;99.90;;;;;;5109887;28;20194;-74
2021/01/04 05:37:28;;;;;;;0.28;0.28;;;3.20;99.90;;;;;;5110326;28;20159;-74
2021/01/04 05:40:02;;;;;;;0.77;0.73;;;3.20;99.90;;;;;;5110296;28;20753;-75
2021/01/04 05:43:18;;;;;;;1.48;1.42;;;3.00;99.90;;;;;;5108335;28;20221;-75
2021/01/04 05:46:19;;;;;;;0.52;0.52;;;2.90;99.90;;;;;;5107969;28;20229;-75
2021/01/04 05:49:12;;;;;;;1.63;1.52;;;3.00;99.90;;;;;;5108104;28;20661;-74
2021/01/04 05:51:49;;;;;;;2.15;1.52;;;2.90;99.90;;;;;;5099530;28;20237;-74
2021/01/04 05:54:35;;;;;;;0.85;0.85;;;2.90;99.90;;;;;;5089872;28;20160;-74
2021/01/04 05:57:12;;;;;;;0.30;0.30;;;3.00;99.90;;;;;;5089718;28;20223;-74
2021/01/04 06:00:05;;;;;;;0.55;0.55;;;3.10;99.90;;;;;;5088318;28;20168;-74
2021/01/04 06:02:34;;;;;;;0.98;0.90;;;3.10;99.90;;;;;;5089110;28;20225;-74
2021/01/04 06:05:15;;;;;;;1.25;1.25;;;3.00;99.90;;;;;;5089546;28;20243;-74
2021/01/04 06:07:44;;;;;;;1.33;1.33;;;3.00;99.90;;;;;;5088911;28;20282;-74
2021/01/04 06:10:32;;;;;;;1.67;1.58;;;2.90;99.90;;;;;;5089564;28;20219;-74
2021/01/04 06:12:58;;;;;;;1.27;1.17;;;2.80;99.90;;;;;;5089316;28;20183;-74
2021/01/04 06:15:37;;;;;;;0.43;0.43;;;2.90;99.90;;;;;;5089481;28;20159;-74
2021/01/04 06:18:05;;;;;;;0.40;0.40;;;3.00;99.90;;;;;;5089108;28;20174;-74
2021/01/04 06:20:55;;;;;;;0.20;0.20;;;3.10;99.90;;;;;;5087976;28;20241;-74
2021/01/04 06:23:28;;;;;;;1.95;1.85;;;3.20;99.90;;;;;;5089170;28;20164;-74
2021/01/04 06:25:59;;;;;;;1.33;0.95;;;3.20;99.90;;;;;;5089102;28;20200;-74
2021/01/04 06:28:25;;;;;;;0.70;0.70;;;3.10;99.90;;;;;;5089188;28;20247;-74
2021/01/04 06:31:04;;;;;;;0.17;0.17;;;3.10;99.90;;;;;;5091641;28;20203;-74
2021/01/04 06:33:30;;;;;;;0.60;0.60;;;3.20;99.90;;;;;;5109429;28;20151;-74
2021/01/04 06:36:13;;;;;;;0.52;0.52;;;3.20;99.90;;;;;;5104292;28;20182;-74
2021/01/04 06:38:40;;;;;;;2.63;2.05;;;3.20;99.90;;;;;;5088938;28;20191;-74
2021/01/04 06:41:16;;;;;;;0.20;0.20;;;3.30;99.90;;;;;;5093761;28;20226;-73
2021/01/04 06:43:43;;;;;;;6.93;4.47;;;3.40;99.90;;;;;;5107426;28;20182;-74
2021/01/04 06:46:36;;;;;;;0.13;0.13;;;3.40;99.90;;;;;;5102832;28;20237;-74
2021/01/04 06:49:16;;;;;;;0.93;0.93;;;3.50;99.90;;;;;;5088941;28;20584;-74
2021/01/04 06:52:09;;;;;;;1.33;1.27;;;3.60;99.90;;;;;;5088792;28;20179;-74
2021/01/04 06:54:51;;;;;;;1.42;1.33;;;3.50;99.90;;;;;;5088739;28;20176;-74
2021/01/04 06:58:11;;;;;;;2.95;1.48;;;3.30;99.90;;;;;;5087563;28;20195;-75
2021/01/04 07:00:57;;;;;;;0.60;0.60;;;3.20;99.90;;;;;;5069763;28;20666;-74
2021/01/04 07:03:38;;;;;;;0.30;0.30;;;3.20;99.90;;;;;;5086815;28;20183;-75
2021/01/04 07:06:28;;;;;;;0.32;0.32;;;3.10;99.90;;;;;;5086961;28;20257;-74
2021/01/04 07:09:15;;;;;;;1.85;1.75;;;3.20;99.90;;;;;;5089940;28;20182;-75
2021/01/04 07:12:24;;;;;;;0.30;0.30;;;3.30;99.90;;;;;;5085890;28;20187;-74
2021/01/04 07:15:28;;;;;;;1.05;1.05;;;3.40;99.90;;;;;;5039807;28;20248;-74
2021/01/04 07:18:26;;;;;;;0.90;0.90;;;3.30;99.90;;;;;;5083545;28;20186;-74
2021/01/04 07:21:05;;;;;;;0.77;0.77;;;3.30;99.90;;;;;;5086504;28;20186;-74
2021/01/04 07:23:52;;;;;;;0.77;0.77;;;3.40;99.90;;;;;;5086632;28;20164;-74
2021/01/04 07:26:41;;;;;;;0.70;0.70;;;3.50;99.90;;;;;;5086309;28;20215;-74
2021/01/04 07:29:10;;;;;;;0.60;0.60;;;3.50;99.90;;;;;;5086233;28;20186;-74
2021/01/04 07:31:49;;;;;;;1.25;1.25;;;3.60;99.90;;;;;;5086556;28;20160;-74
2021/01/04 07:34:22;;;;;;;1.20;1.20;;;3.70;99.90;;;;;;5086937;28;20176;-74
2021/01/04 07:37:32;;;;;;;14.45;2.47;;;3.70;99.90;;;;;;5087154;28;20207;-74
2021/01/04 07:40:00;;;;;;;0.93;0.93;;;3.80;99.90;;;;;;5087916;28;20184;-74
2021/01/04 07:42:35;;;;;;;1.17;1.17;;;3.90;99.90;;;;;;5088171;28;20224;-74
2021/01/04 07:45:25;;;;;;;0.95;0.95;;;4.00;99.90;;;;;;5088377;28;20206;-74
2021/01/04 07:48:15;;;;;;;1.65;1.45;;;3.90;99.90;;;;;;5088009;28;20218;-74
2021/01/04 07:51:15;;;;;;;0.20;0.20;;;3.90;99.90;;;;;;5088349;28;20214;-74
2021/01/04 07:54:13;;;;;;;0.85;0.85;;;3.90;99.90;;;;;;5088267;28;20247;-75
2021/01/04 07:57:02;;;;;;;2.20;1.92;;;3.80;99.90;;;;;;5089536;28;20679;-73
2021/01/04 07:59:50;;;;;;;0.77;0.77;;;3.90;99.90;;;;;;5092036;28;20183;-74
2021/01/04 08:02:52;;;;;;;0.85;0.85;;;4.00;99.90;;;;;;5090492;28;20176;-74
2021/01/04 08:05:39;;;;;;;0.73;0.73;;;3.90;99.90;;;;;;5072590;28;20214;-74
2021/01/04 08:08:30;;;;;;;0.32;0.32;;;3.90;99.90;;;;;;5106067;28;20226;-74
2021/01/04 08:11:17;;;;;;;1.25;1.25;;;4.10;99.90;;;;;;5109209;28;20175;-74
2021/01/04 08:13:57;;;;;;;0.50;0.50;;;4.10;99.90;;;;;;5089193;28;20266;-74
2021/01/04 08:16:39;;;;;;;0.20;0.20;;;4.10;99.90;;;;;;5089639;28;20171;-74
2021/01/04 08:19:07;;;;;;;1.67;1.58;;;4.10;99.90;;;;;;5089258;28;20226;-74
2021/01/04 08:21:57;;;;;;;2.85;1.70;;;4.20;99.90;;;;;;5089358;28;20207;-74
2021/01/04 08:24:35;;;;;;;0.65;0.63;;;4.20;99.90;;;;;;5089239;28;20196;-74
2021/01/04 08:27:21;;;;;;;0.82;0.82;;;4.20;99.90;;;;;;5089192;28;20594;-74
2021/01/04 08:29:58;;;;;;;0.68;0.68;;;4.20;99.90;;;;;;5089235;28;20176;-74
2021/01/04 08:32:35;;;;;;;2.42;1.95;;;4.10;99.90;;;;;;5088672;28;20292;-74
2021/01/04 08:35:27;;;;;;;0.43;0.43;;;3.90;99.90;;;;;;5072489;28;20168;-74
2021/01/04 08:37:56;;;;;;;1.10;1.10;;;3.90;99.90;;;;;;5085815;28;20607;-73
2021/01/04 08:40:22;;;;;;;1.25;1.25;;;3.80;99.90;;;;;;5090453;28;20210;-75
2021/01/04 08:43:09;;;;;;;4.45;4.03;;;3.90;99.90;;;;;;5091115;28;20164;-74
2021/01/04 08:45:38;;;;;;;1.38;1.38;;;3.90;99.90;;;;;;5090829;28;20276;-74
2021/01/04 08:48:21;;;;;;;1.85;1.73;;;3.80;99.90;;;;;;5089674;28;20194;-74
2021/01/04 08:51:12;;;;;;;1.02;1.00;;;3.70;99.90;;;;;;5089367;28;20192;-74
2021/01/04 08:53:38;;;;;;;2.53;2.38;;;3.70;99.90;;;;;;5106342;28;20206;-74
2021/01/04 08:56:26;;;;;;;2.05;1.95;;;3.70;99.90;;;;;;5089404;28;20176;-74
2021/01/04 08:59:04;;;;;;;2.58;2.08;;;3.70;99.90;;;;;;5093094;28;20216;-74
2021/01/04 09:01:30;;;;;;;2.35;2.15;;;3.70;99.90;;;;;;5088916;28;20182;-74
2021/01/04 09:04:04;;;;;;;0.65;0.65;;;3.70;99.90;;;;;;5090572;28;20171;-74
2021/01/04 09:06:33;;;;;;;0.68;0.68;;;3.70;99.90;;;;;;5093674;28;20211;-74
2021/01/04 09:09:10;;;;;;;2.17;1.77;;;3.70;99.90;;;;;;5110920;28;20181;-74
2021/01/04 09:11:56;;;;;;;0.28;0.28;;;3.60;99.90;;;;;;5110938;28;20185;-74
2021/01/04 09:14:36;;;;;;;1.02;0.98;;;3.60;99.90;;;;;;5110677;28;20189;-74
2021/01/04 09:17:31;;;;;;;0.30;0.30;;;3.50;99.90;;;;;;5110591;28;20194;-73
2021/01/04 09:20:13;;;;;;;0.88;0.80;;;3.60;99.90;;;;;;5110641;28;20634;-74
2021/01/04 09:22:38;;;;;;;0.20;0.20;;;3.50;99.90;;;;;;5110809;28;20167;-75
2021/01/04 09:25:18;;;;;;;3.70;2.47;;;3.50;99.90;;;;;;5110597;28;20191;-74
2021/01/04 09:27:48;;;;;;;0.45;0.45;;;3.40;99.90;;;;;;5109093;28;20187;-75
2021/01/04 09:30:23;;;;;;;0.35;0.35;;;3.50;99.90;;;;;;5109082;28;20167;-75
2021/01/04 09:32:49;;;;;;;0.75;0.75;;;3.50;99.90;;;;;;5109175;28;20179;-75
2021/01/04 09:35:24;;;;;;;0.88;0.88;;;3.60;99.90;;;;;;5109221;28;20171;-75
2021/01/04 09:37:59;;;;;;;1.58;1.48;;;3.60;99.90;;;;;;5110312;28;20201;-74
2021/01/04 09:40:25;;;;;;;1.40;1.33;;;3.50;99.90;;;;;;5110244;28;20170;-74
2021/01/04 09:42:51;;;;;;;1.25;0.68;;;3.60;99.90;;;;;;5109935;28;20183;-75
2021/01/04 09:45:21;;;;;;;0.88;0.88;;;3.70;99.90;;;;;;5108780;28;20195;-75
2021/01/04 09:47:58;;;;;;;0.77;0.77;;;3.80;99.90;;;;;;5108716;28;20187;-75
2021/01/04 09:50:50;;;;;;;1.00;1.00;;;3.90;99.90;;;;;;5109866;28;20147;-74
2021/01/04 09:53:30;;;;;;;0.40;0.40;;;4.00;99.90;;;;;;5110060;28;20159;-75
2021/01/04 09:56:03;;;;;;;1.30;1.20;;;4.00;99.90;;;;;;5108612;28;20199;-74
2021/01/04 09:58:28;;;;;;;0.28;0.28;;;4.10;99.90;;;;;;5110057;28;20175;-75
2021/01/04 10:01:13;;;;;;;0.55;0.55;;;3.90;99.90;;;;;;5109883;28;20175;-75
2021/01/04 10:03:50;;;;;;;0.20;0.20;;;3.90;99.90;;;;;;5109812;28;20258;-74
2021/01/04 10:06:16;;;;;;;0.90;0.90;;;4.00;99.90;;;;;;5108572;28;20647;-74
2021/01/04 10:08:44;;;;;;;0.68;0.68;;;4.20;99.90;;;;;;5109628;28;20158;-75
2021/01/04 10:11:17;;;;;;;1.08;1.08;;;4.10;99.90;;;;;;5110047;28;20160;-74
2021/01/04 10:13:43;;;;;;;0.35;0.35;;;4.30;99.90;;;;;;5109659;28;20148;-75
2021/01/04 10:16:14;;;;;;;0.38;0.38;;;4.50;99.90;;;;;;5108501;28;20209;-74
2021/01/04 10:19:06;;;;;;;0.82;0.82;;;4.60;99.90;;;;;;5109029;28;20597;-74
2021/01/04 10:21:46;;;;;;;0.40;0.40;;;4.80;99.90;;;;;;5109752;28;20152;-75
2021/01/04 10:24:57;;;;;;;0.68;0.68;;;4.40;99.90;;;;;;5109618;28;20258;-75
2021/01/04 10:27:25;;;;;;;0.20;0.20;;;4.30;99.90;;;;;;5108154;28;20209;-74
2021/01/04 10:29:53;;;;;;;0.20;0.20;;;4.30;99.90;;;;;;5109703;28;20183;-75
2021/01/04 10:32:34;;;;;;;0.20;0.20;;;4.40;99.90;;;;;;5109369;28;20178;-75
2021/01/04 10:35:01;;;;;;;1.27;1.27;;;4.50;99.90;;;;;;5109402;28;20155;-75
2021/01/04 10:38:00;;;;;;;0.30;0.30;;;4.60;99.90;;;;;;5109420;28;20183;-74
2021/01/04 10:40:26;;;;;;;0.85;0.85;;;4.50;99.90;;;;;;5109031;28;20155;-74
2021/01/04 10:43:05;;;;;;;1.15;0.70;;;4.50;99.90;;;;;;5109200;28;20156;-73
2021/01/04 10:45:37;;;;;;;1.80;1.80;;;4.40;99.90;;;;;;5109275;28;20286;-75
2021/01/04 10:48:12;;;;;;;0.63;0.63;;;4.40;99.90;;;;;;5108077;28;20256;-74
2021/01/04 10:50:40;;;;;;;0.20;0.20;;;4.50;99.90;;;;;;5109360;28;20151;-74
2021/01/04 10:53:09;;;;;;;0.47;0.47;;;4.50;99.90;;;;;;5109319;28;20151;-75
2021/01/04 10:55:49;;;;;;;0.20;0.20;;;4.50;99.90;;;;;;5107699;28;20202;-75
2021/01/04 10:58:31;;;;;;;0.20;0.20;;;4.60;99.90;;;;;;5107824;28;20182;-74
2021/01/04 11:01:09;;;;;;;0.52;0.52;;;4.30;99.90;;;;;;5107869;28;20178;-75
2021/01/04 11:03:39;;;;;;;0.20;0.20;;;4.40;99.90;;;;;;5109314;28;20163;-74
2021/01/04 11:06:34;;;;;;;0.17;0.17;;;4.50;99.90;;;;;;5109059;28;20199;-74
2021/01/04 11:09:11;;;;;;;0.20;0.20;;;4.60;99.90;;;;;;5109139;28;20151;-74
2021/01/04 11:11:42;;;;;;;0.85;0.85;;;4.80;99.90;;;;;;5107760;28;20261;-75
2021/01/04 11:14:20;;;;;;;0.93;0.93;;;4.80;99.90;;;;;;5107782;28;20175;-75
2021/01/04 11:16:46;;;;;;;0.30;0.30;;;4.80;99.90;;;;;;5109085;28;20550;-75
2021/01/04 11:19:13;;;;;;;0.52;0.52;;;4.90;99.90;;;;;;5108958;28;20159;-75
2021/01/04 11:21:45;;;;;;;1.60;1.55;;;4.90;99.90;;;;;;5109111;28;20220;-75
2021/01/04 11:24:12;;;;;;;6.55;4.97;;;5.00;99.90;;;;;;5107411;28;20182;-75
2021/01/04 11:26:42;;;;;;;0.28;0.28;;;5.00;99.90;;;;;;5108955;28;20233;-74
2021/01/04 11:29:09;;;;;;;0.40;0.40;;;4.90;99.90;;;;;;5107543;28;20164;-75
2021/01/04 11:31:35;;;;;;;0.85;0.85;;;4.90;99.90;;;;;;5111690;28;20155;-75
2021/01/04 11:34:01;;;;;;;1.67;1.58;;;4.90;99.90;;;;;;5111667;28;20167;-74
2021/01/04 11:36:27;;;;;;;0.90;0.90;;;4.90;99.90;;;;;;5111465;28;20195;-74
2021/01/04 11:38:53;;;;;;;0.55;0.55;;;4.90;99.90;;;;;;5112591;28;20167;-74
2021/01/04 11:41:18;;;;;;;1.00;0.73;;;4.90;99.90;;;;;;5112635;28;20294;-75
2021/01/04 11:43:47;;;;;;;2.38;0.65;;;4.90;99.90;;;;;;5111048;28;20179;-75
2021/01/04 11:46:17;;;;;;;0.50;0.50;;;4.80;99.90;;;;;;5112560;28;20247;-75
2021/01/04 11:48:43;;;;;;;0.25;0.25;;;4.80;99.90;;;;;;5112441;28;20224;-74
2021/01/04 11:51:09;;;;;;;0.10;0.10;;;4.70;99.90;;;;;;5112683;28;20159;-75
2021/01/04 11:53:35;;;;;;;1.05;0.57;;;4.70;99.90;;;;;;5110998;28;20167;-74
2021/01/04 11:56:01;;;;;;;0.20;0.20;;;4.80;99.90;;;;;;5112253;28;20260;-75
2021/01/04 11:58:28;;;;;;;0.47;0.47;;;4.80;99.90;;;;;;5112485;28;20164;-75
2021/01/04 12:00:55;;;;;;;1.10;1.10;;;4.90;99.90;;;;;;5112257;28;20160;-75
2021/01/04 12:03:21;;;;;;;0.20;0.20;;;4.90;99.90;;;;;;5112262;28;20185;-74
2021/01/04 12:05:46;;;;;;;0.43;0.43;;;4.90;99.90;;;;;;5112175;28;20266;-75
2021/01/04 12:08:12;;;;;;;0.88;0.88;;;4.80;99.90;;;;;;5111984;28;20155;-75
2021/01/04 12:10:38;;;;;;;1.25;1.25;;;4.70;99.90;;;;;;5110793;28;20171;-75
2021/01/04 12:13:06;;;;;;;1.55;0.80;;;4.70;99.90;;;;;;5110737;28;20175;-75
2021/01/04 12:15:32;;;;;;;0.10;0.10;;;4.70;99.90;;;;;;5112029;28;20187;-75
2021/01/04 12:17:58;;;;;;;0.20;0.20;;;4.60;99.90;;;;;;5110755;28;20179;-75
2021/01/04 12:20:24;;;;;;;0.88;0.85;;;4.60;99.90;;;;;;5111993;28;20220;-75
2021/01/04 12:22:49;;;;;;;0.63;0.63;;;4.50;99.90;;;;;;5110519;28;20189;-75
2021/01/04 12:25:16;;;;;;;1.23;1.13;;;4.60;99.90;;;;;;5111602;28;20228;-75
2021/01/04 12:27:43;;;;;;;0.20;0.20;;;4.60;99.90;;;;;;5111631;28;20220;-75
2021/01/04 12:30:10;;;;;;;2.53;1.35;;;4.60;99.90;;;;;;5110575;28;20178;-74
2021/01/04 12:32:36;;;;;;;1.10;1.10;;;4.50;99.90;;;;;;5111494;28;20168;-74
2021/01/04 12:35:02;;;;;;;1.20;1.20;;;4.50;99.90;;;;;;5110328;28;20176;-75
2021/01/04 12:37:28;;;;;;;1.33;0.85;;;4.50;99.90;;;;;;5111508;28;20233;-75
2021/01/04 12:39:54;;;;;;;0.25;0.25;;;4.70;99.90;;;;;;5111386;28;20159;-74
2021/01/04 12:42:20;;;;;;;1.75;1.65;;;4.70;99.90;;;;;;5109437;28;20223;-75
2021/01/04 12:44:47;;;;;;;0.20;0.20;;;4.70;99.90;;;;;;5111255;28;20191;-74
2021/01/04 12:47:14;;;;;;;1.60;1.55;;;4.60;99.90;;;;;;5111500;28;20160;-75
2021/01/04 12:49:40;;;;;;;0.75;0.75;;;4.60;99.90;;;;;;5111305;28;20235;-75
2021/01/04 12:52:06;;;;;;;0.75;0.75;;;4.70;99.90;;;;;;5111310;28;20163;-75
2021/01/04 12:54:31;;;;;;;1.45;1.35;;;4.60;99.90;;;;;;5111110;28;20155;-74
2021/01/04 12:57:02;;;;;;;0.57;0.57;;;4.50;99.90;;;;;;5109670;28;20195;-75
2021/01/04 12:59:28;;;;;;;1.40;1.35;;;4.50;99.90;;;;;;5110843;28;20171;-74
2021/01/04 13:01:55;;;;;;;4.75;1.05;;;4.50;99.90;;;;;;5110697;28;20177;-74
2021/01/04 13:04:23;;;;;;;0.85;0.85;;;4.60;99.90;;;;;;5110499;28;20154;-75
2021/01/04 13:06:49;;;;;;;1.27;1.27;;;4.60;99.90;;;;;;5110057;28;20263;-75
2021/01/04 13:09:16;;;;;;;0.85;0.85;;;4.70;99.90;;;;;;5110488;28;20151;-74
2021/01/04 13:11:49;;;;;;;0.47;0.47;;;4.70;99.90;;;;;;5109433;28;20183;-74
2021/01/04 13:14:17;;;;;;;0.65;0.65;;;4.80;99.90;;;;;;5110457;28;20156;-74
2021/01/04 13:16:43;;;;;;;0.80;0.80;;;4.90;99.90;;;;;;5108984;28;20225;-74
2021/01/04 13:19:09;;;;;;;1.70;1.60;;;4.80;99.90;;;;;;5110370;28;20246;-74
2021/01/04 13:21:36;;;;;;;1.67;1.58;;;4.80;99.90;;;;;;5109042;28;20199;-74
2021/01/04 13:24:04;;;;;;;1.23;1.15;;;4.90;99.90;;;;;;5110430;28;20599;-74
2021/01/04 13:26:37;;;;;;;0.43;0.43;;;4.80;99.90;;;;;;5110118;28;20187;-74
2021/01/04 13:29:02;;;;;;;0.30;0.30;;;4.80;99.90;;;;;;5110287;28;20159;-74
2021/01/04 13:31:28;;;;;;;2.30;2.03;;;4.70;99.90;;;;;;5109964;28;20191;-74
2021/01/04 13:33:54;;;;;;;0.68;0.68;;;4.70;99.90;;;;;;5110201;28;20156;-74
2021/01/04 13:36:20;;;;;;;1.15;0.73;;;4.70;99.90;;;;;;5110132;28;20167;-74
2021/01/04 13:38:46;;;;;;;1.35;1.27;;;4.80;99.90;;;;;;5110139;28;20171;-74
2021/01/04 13:41:16;;;;;;;2.40;2.30;;;4.80;99.90;;;;;;5109741;28;20223;-74
2021/01/04 13:43:43;;;;;;;0.15;0.15;;;4.80;99.90;;;;;;5109880;28;20707;-74
2021/01/04 13:46:09;;;;;;;0.38;0.38;;;4.80;99.90;;;;;;5108476;28;20236;-74
2021/01/04 13:48:36;;;;;;;0.20;0.20;;;4.80;99.90;;;;;;5108710;28;20207;-74